createdAt,value
2023-01-22T00:00:24.080Z,6.03
2023-01-22T00:03:29.314Z,6.30
2023-01-22T00:06:35.588Z,6.07
2023-01-22T00:09:41.713Z,6.63
2023-01-22T00:12:46.902Z,6.23
2023-01-22T00:15:52.535Z,5.80
2023-01-22T00:18:57.389Z,6.70
2023-01-22T00:22:04.291Z,7.90
2023-01-22T00:25:12.308Z,6.67
2023-01-22T00:28:17.601Z,6.70
2023-01-22T00:31:23.772Z,6.93
2023-01-22T00:34:29.480Z,6.70
2023-01-22T00:37:39.795Z,6.83
2023-01-22T00:40:44.869Z,6.07
2023-01-22T00:43:52.684Z,6.13
2023-01-22T00:46:58.767Z,5.87
2023-01-22T00:50:04.090Z,6.17
2023-01-22T00:53:10.876Z,6.97
2023-01-22T00:56:16.560Z,6.13
2023-01-22T00:59:21.703Z,5.60
2023-01-22T01:02:28.241Z,6.83
2023-01-22T01:05:33.336Z,6.03
2023-01-22T01:08:42.550Z,6.13
2023-01-22T01:11:47.769Z,6.27
2023-01-22T01:14:52.887Z,5.23
2023-01-22T01:17:58.142Z,6.53
2023-01-22T01:21:04.280Z,6.20
2023-01-22T01:24:11.607Z,6.30
2023-01-22T01:27:17.653Z,5.57
2023-01-22T01:30:22.931Z,6.43
2023-01-22T01:33:28.161Z,6.17
2023-01-22T01:36:48.309Z,6.57
2023-01-22T01:39:56.072Z,6.70
2023-01-22T01:43:01.346Z,6.60
2023-01-22T01:46:12.721Z,6.97
2023-01-22T01:49:26.301Z,7.00
2023-01-22T01:52:31.459Z,7.70
2023-01-22T01:55:41.524Z,7.87
2023-01-22T01:58:47.260Z,7.33
2023-01-22T02:01:56.359Z,7.87
2023-01-22T02:05:01.693Z,7.87
2023-01-22T02:08:09.617Z,8.50
2023-01-22T02:11:19.805Z,6.93
2023-01-22T02:14:28.580Z,8.23
2023-01-22T02:17:33.769Z,8.53
2023-01-22T02:20:41.779Z,9.00
2023-01-22T02:23:47.205Z,8.43
2023-01-22T02:26:54.770Z,7.43
2023-01-22T02:30:00.118Z,6.77
2023-01-22T02:33:06.794Z,7.27
2023-01-22T02:36:16.293Z,6.50
2023-01-22T02:39:21.492Z,6.80
2023-01-22T02:42:28.430Z,6.77
2023-01-22T02:45:34.644Z,6.20
2023-01-22T02:48:40.937Z,6.40
2023-01-22T02:51:48.071Z,5.97
2023-01-22T02:54:53.349Z,6.27
2023-01-22T02:57:59.051Z,6.60
2023-01-22T03:01:18.965Z,6.30
2023-01-22T03:04:27.369Z,5.97
2023-01-22T03:07:42.340Z,6.40
2023-01-22T03:10:51.893Z,5.73
2023-01-22T03:14:14.993Z,5.23
2023-01-22T03:17:37.967Z,5.60
2023-01-22T03:21:01.007Z,6.23
2023-01-22T03:24:08.309Z,6.87
2023-01-22T03:27:15.478Z,6.57
2023-01-22T03:30:21.139Z,5.80
2023-01-22T03:33:26.957Z,5.90
2023-01-22T03:36:32.639Z,6.57
2023-01-22T03:39:43.653Z,5.97
2023-01-22T03:42:55.900Z,6.33
2023-01-22T03:46:06.761Z,5.10
2023-01-22T03:49:14.878Z,6.03
2023-01-22T03:52:21.200Z,5.50
2023-01-22T03:55:27.936Z,5.53
2023-01-22T03:58:34.003Z,6.23
2023-01-22T04:01:39.201Z,5.97
2023-01-22T04:04:44.938Z,5.30
2023-01-22T04:07:51.674Z,5.97
2023-01-22T04:11:03.409Z,6.13
2023-01-22T04:14:08.874Z,5.17
2023-01-22T04:17:16.829Z,4.97
2023-01-22T04:20:29.293Z,5.83
2023-01-22T04:23:57.882Z,5.47
2023-01-22T04:27:06.720Z,6.10
2023-01-22T04:30:14.099Z,6.17
2023-01-22T04:33:19.927Z,6.00
2023-01-22T04:36:39.425Z,5.80
2023-01-22T04:39:47.573Z,6.13
2023-01-22T04:42:55.676Z,6.27
2023-01-22T04:46:01.974Z,5.80
2023-01-22T04:49:12.416Z,6.00
2023-01-22T04:52:18.917Z,6.03
2023-01-22T04:55:26.563Z,6.67
2023-01-22T04:58:41.936Z,6.77
2023-01-22T05:01:47.420Z,6.43
2023-01-22T05:04:52.530Z,6.27
2023-01-22T05:07:58.616Z,6.13
2023-01-22T05:11:04.774Z,6.50
2023-01-22T05:14:21.579Z,6.73
2023-01-22T05:17:27.249Z,6.87
2023-01-22T05:20:33.364Z,6.80
2023-01-22T05:23:38.985Z,6.80
2023-01-22T05:26:45.492Z,7.43
2023-01-22T05:30:06.822Z,6.50
2023-01-22T05:33:32.315Z,7.37
2023-01-22T05:36:37.578Z,7.47
2023-01-22T05:39:50.967Z,7.63
2023-01-22T05:42:57.022Z,6.90
2023-01-22T05:46:06.903Z,7.93
2023-01-22T05:49:47.502Z,7.87
2023-01-22T05:52:56.804Z,7.43
2023-01-22T05:56:03.015Z,6.73
2023-01-22T05:59:16.726Z,7.20
2023-01-22T06:02:28.076Z,7.93
2023-01-22T06:05:35.010Z,7.80
2023-01-22T06:08:44.986Z,8.53
2023-01-22T06:11:51.197Z,8.83
2023-01-22T06:14:57.155Z,8.07
2023-01-22T06:18:07.400Z,9.97
2023-01-22T06:21:13.988Z,8.83
2023-01-22T06:24:19.242Z,9.97
2023-01-22T06:27:25.667Z,8.87
2023-01-22T06:30:34.833Z,9.37
2023-01-22T06:33:43.536Z,9.40
2023-01-22T06:36:48.892Z,8.80
2023-01-22T06:39:55.634Z,9.20
2023-01-22T06:43:06.679Z,8.90
2023-01-22T06:46:14.211Z,7.57
2023-01-22T06:49:37.145Z,8.10
2023-01-22T06:52:42.474Z,8.27
2023-01-22T06:55:51.345Z,8.60
2023-01-22T06:58:57.932Z,8.53
2023-01-22T07:02:03.588Z,8.37
2023-01-22T07:05:10.765Z,9.17
2023-01-22T07:08:17.138Z,9.37
2023-01-22T07:11:22.292Z,9.07
2023-01-22T07:14:36.464Z,8.73
2023-01-22T07:17:42.434Z,9.30
2023-01-22T07:20:49.193Z,8.73
2023-01-22T07:23:54.606Z,8.83
2023-01-22T07:26:59.860Z,8.33
2023-01-22T07:30:05.262Z,9.97
2023-01-22T07:33:15.320Z,8.50
2023-01-22T07:36:22.004Z,9.27
2023-01-22T07:39:27.519Z,8.70
2023-01-22T07:42:32.921Z,8.87
2023-01-22T07:45:39.001Z,9.23
2023-01-22T07:48:45.816Z,9.23
2023-01-22T07:51:52.632Z,8.53
2023-01-22T07:54:57.970Z,10.27
2023-01-22T07:58:04.823Z,8.80
2023-01-22T08:01:13.902Z,8.77
2023-01-22T08:04:19.110Z,8.37
2023-01-22T08:07:27.704Z,8.60
2023-01-22T08:10:33.339Z,8.60
2023-01-22T08:13:38.588Z,9.20
2023-01-22T08:16:43.847Z,7.97
2023-01-22T08:19:48.786Z,8.40
2023-01-22T08:22:59.573Z,8.20
2023-01-22T08:26:05.392Z,8.27
2023-01-22T08:29:11.164Z,8.30
2023-01-22T08:32:16.573Z,8.10
2023-01-22T08:35:24.484Z,8.07
2023-01-22T08:38:31.658Z,9.83
2023-01-22T08:41:36.785Z,9.43
2023-01-22T08:44:42.081Z,9.10
2023-01-22T08:47:47.874Z,10.50
2023-01-22T08:50:53.202Z,10.87
2023-01-22T08:53:59.910Z,7.77
2023-01-22T08:57:05.317Z,9.83
2023-01-22T09:00:14.364Z,10.70
2023-01-22T09:03:19.799Z,9.57
2023-01-22T09:06:26.949Z,8.63
2023-01-22T09:09:33.653Z,8.97
2023-01-22T09:12:39.221Z,7.23
2023-01-22T09:15:45.267Z,9.23
2023-01-22T09:18:52.076Z,9.30
2023-01-22T09:21:57.028Z,9.20
2023-01-22T09:25:05.121Z,9.93
2023-01-22T09:28:12.548Z,9.73
2023-01-22T09:31:21.672Z,10.43
2023-01-22T09:34:31.106Z,9.87
2023-01-22T09:37:42.142Z,9.80
2023-01-22T09:40:57.810Z,9.90
2023-01-22T09:44:06.594Z,9.33
2023-01-22T09:47:15.100Z,10.07
2023-01-22T09:50:23.142Z,10.13
2023-01-22T09:53:28.172Z,9.23
2023-01-22T09:56:40.733Z,9.43
2023-01-22T09:59:51.923Z,9.43
2023-01-22T10:03:02.237Z,10.10
2023-01-22T10:06:13.392Z,10.17
2023-01-22T10:09:21.994Z,9.70
2023-01-22T10:12:31.889Z,9.10
2023-01-22T10:15:38.054Z,8.53
2023-01-22T10:18:46.301Z,9.07
2023-01-22T10:21:53.738Z,9.53
2023-01-22T10:24:59.538Z,8.97
2023-01-22T10:28:06.417Z,8.73
2023-01-22T10:31:29.205Z,8.33
2023-01-22T10:34:36.627Z,8.03
2023-01-22T10:37:46.818Z,7.77
2023-01-22T10:40:56.800Z,7.83
2023-01-22T10:44:20.820Z,7.20
2023-01-22T10:47:28.405Z,7.37
2023-01-22T10:50:34.574Z,6.53
2023-01-22T10:53:45.054Z,7.60
2023-01-22T10:56:50.857Z,6.63
2023-01-22T11:00:07.987Z,7.17
2023-01-22T11:03:20.363Z,7.03
2023-01-22T11:06:29.158Z,6.90
2023-01-22T11:09:38.612Z,6.93
2023-01-22T11:12:47.570Z,6.70
2023-01-22T11:15:59.271Z,6.33
2023-01-22T11:19:08.046Z,5.13
2023-01-22T11:22:29.126Z,5.80
2023-01-22T11:25:42.545Z,6.13
2023-01-22T11:28:59.399Z,5.73
2023-01-22T11:32:23.226Z,5.27
2023-01-22T11:35:31.013Z,6.70
2023-01-22T11:38:43.171Z,5.67
2023-01-22T11:41:59.968Z,6.17
2023-01-22T11:45:15.353Z,5.87
2023-01-22T11:48:33.451Z,5.97
2023-01-22T11:51:45.379Z,5.20
2023-01-22T11:55:02.943Z,6.20
2023-01-22T11:58:18.690Z,6.67
2023-01-22T12:01:33.758Z,6.10
2023-01-22T12:05:04.658Z,6.80
2023-01-22T12:08:28.591Z,6.30
2023-01-22T12:11:56.722Z,6.50
2023-01-22T12:15:17.112Z,6.43
2023-01-22T12:18:46.160Z,7.10
2023-01-22T12:22:03.127Z,8.90
2023-01-22T12:25:17.222Z,7.10
2023-01-22T12:28:28.480Z,5.63
2023-01-22T12:31:37.780Z,5.40
2023-01-22T12:34:48.252Z,5.40
2023-01-22T12:37:59.950Z,5.53
2023-01-22T12:41:30.047Z,4.93
2023-01-22T12:44:58.732Z,5.23
2023-01-22T12:48:14.163Z,4.57
2023-01-22T12:51:29.120Z,4.33
2023-01-22T12:54:39.286Z,4.60
2023-01-22T12:57:45.030Z,4.83
2023-01-22T13:01:02.809Z,4.77
2023-01-22T13:04:12.940Z,4.50
2023-01-22T13:07:24.810Z,4.83
2023-01-22T13:10:44.113Z,5.40
2023-01-22T13:14:06.228Z,4.47
2023-01-22T13:17:22.516Z,4.47
2023-01-22T13:20:28.629Z,4.83
2023-01-22T13:23:36.282Z,4.03
2023-01-22T13:26:53.180Z,4.77
2023-01-22T13:30:09.284Z,4.97
2023-01-22T13:33:16.493Z,4.50
2023-01-22T13:36:22.821Z,5.10
2023-01-22T13:39:31.549Z,4.63
2023-01-22T13:42:38.834Z,4.00
2023-01-22T13:45:45.355Z,4.20
2023-01-22T13:49:00.383Z,4.50
2023-01-22T13:52:08.593Z,4.17
2023-01-22T13:55:18.928Z,4.13
2023-01-22T13:58:49.430Z,4.70
2023-01-22T14:01:54.876Z,5.00
2023-01-22T14:05:01.011Z,4.83
2023-01-22T14:08:09.241Z,5.33
2023-01-22T14:11:18.193Z,5.13
2023-01-22T14:14:25.060Z,5.03
2023-01-22T14:17:34.201Z,5.17
2023-01-22T14:20:41.549Z,4.73
2023-01-22T14:25:04.485Z,4.50
2023-01-22T14:28:35.008Z,4.40
2023-01-22T14:31:42.778Z,4.50
2023-01-22T14:34:48.412Z,4.93
2023-01-22T14:37:53.688Z,5.67
2023-01-22T14:40:59.054Z,5.23
2023-01-22T14:44:05.805Z,4.63
2023-01-22T14:47:12.410Z,5.10
2023-01-22T14:50:19.094Z,6.80
2023-01-22T14:53:24.270Z,6.40
2023-01-22T14:56:30.537Z,5.27
2023-01-22T14:59:35.493Z,5.47
2023-01-22T15:02:42.152Z,3.77
2023-01-22T15:05:47.709Z,4.50
2023-01-22T15:08:53.235Z,4.40
2023-01-22T15:11:58.371Z,4.13
2023-01-22T15:15:03.761Z,4.27
2023-01-22T15:18:11.670Z,4.07
2023-01-22T15:21:17.115Z,4.60
2023-01-22T15:24:23.038Z,5.93
2023-01-22T15:27:29.294Z,5.40
2023-01-22T15:30:34.840Z,4.30
2023-01-22T15:33:41.419Z,3.87
2023-01-22T15:36:56.281Z,3.73
2023-01-22T15:40:03.496Z,3.83
2023-01-22T15:43:09.542Z,3.60
2023-01-22T15:46:22.973Z,3.87
2023-01-22T15:49:55.543Z,3.03
2023-01-22T15:53:04.480Z,3.60
2023-01-22T15:56:16.846Z,3.40
2023-01-22T15:59:33.260Z,3.43
2023-01-22T16:02:48.265Z,3.43
2023-01-22T16:05:56.095Z,3.60
2023-01-22T16:09:02.421Z,3.50
2023-01-22T16:12:08.738Z,3.27
2023-01-22T16:15:14.066Z,3.47
2023-01-22T16:18:19.225Z,3.37
2023-01-22T16:21:26.683Z,3.97
2023-01-22T16:24:32.256Z,3.67
2023-01-22T16:27:37.351Z,3.80
2023-01-22T16:30:43.137Z,4.10
2023-01-22T16:33:52.071Z,4.13
2023-01-22T16:36:59.610Z,4.60
2023-01-22T16:40:05.052Z,4.40
2023-01-22T16:43:10.786Z,5.60
2023-01-22T16:46:17.218Z,5.97
2023-01-22T16:49:24.720Z,5.80
2023-01-22T16:52:32.165Z,6.23
2023-01-22T16:55:37.915Z,5.17
2023-01-22T16:58:43.721Z,5.60
2023-01-22T17:01:52.327Z,6.23
2023-01-22T17:04:58.511Z,6.10
2023-01-22T17:08:05.489Z,6.60
2023-01-22T17:11:17.136Z,5.90
2023-01-22T17:14:23.884Z,6.10
2023-01-22T17:17:30.043Z,6.83
2023-01-22T17:20:35.429Z,6.40
2023-01-22T17:23:42.472Z,5.97
2023-01-22T17:26:50.685Z,6.67
2023-01-22T17:29:55.963Z,6.70
2023-01-22T17:33:01.559Z,6.97
2023-01-22T17:36:08.180Z,6.67
2023-01-22T17:39:17.710Z,7.13
2023-01-22T17:42:25.650Z,6.37
2023-01-22T17:45:31.291Z,7.07
2023-01-22T17:48:45.186Z,7.10
2023-01-22T17:51:50.739Z,7.27
2023-01-22T17:54:58.289Z,7.73
2023-01-22T17:58:04.245Z,8.27
2023-01-22T18:01:13.214Z,6.90
2023-01-22T18:04:23.009Z,7.40
2023-01-22T18:07:30.120Z,7.37
2023-01-22T18:10:39.617Z,8.13
2023-01-22T18:13:46.941Z,7.97
2023-01-22T18:16:52.455Z,8.33
2023-01-22T18:20:00.374Z,8.20
2023-01-22T18:23:05.303Z,8.00
2023-01-22T18:26:20.128Z,8.03
2023-01-22T18:29:26.995Z,7.97
2023-01-22T18:32:36.494Z,8.40
2023-01-22T18:35:47.218Z,6.57
2023-01-22T18:39:01.299Z,8.43
2023-01-22T18:42:08.069Z,8.13
2023-01-22T18:45:15.783Z,8.83
2023-01-22T18:48:23.469Z,9.47
2023-01-22T18:51:39.016Z,9.20
2023-01-22T18:54:50.301Z,8.63
2023-01-22T18:58:07.928Z,9.67
2023-01-22T19:01:17.355Z,9.50
2023-01-22T19:04:24.778Z,9.23
2023-01-22T19:07:40.283Z,8.70
2023-01-22T19:10:53.360Z,8.33
2023-01-22T19:14:09.178Z,7.70
2023-01-22T19:17:22.223Z,8.63
2023-01-22T19:20:31.449Z,7.73
2023-01-22T19:23:45.564Z,8.70
2023-01-22T19:26:56.302Z,8.93
2023-01-22T19:30:09.413Z,7.20
2023-01-22T19:33:29.822Z,7.00
2023-01-22T19:36:41.885Z,7.37
2023-01-22T19:39:50.713Z,7.57
2023-01-22T19:42:59.242Z,6.60
2023-01-22T19:46:14.134Z,7.07
2023-01-22T19:49:36.019Z,6.43
2023-01-22T19:52:51.913Z,6.60
2023-01-22T19:55:59.869Z,7.00
2023-01-22T19:59:10.122Z,5.93
2023-01-22T20:02:22.391Z,6.07
2023-01-22T20:05:42.887Z,6.67
2023-01-22T20:08:48.181Z,6.30
2023-01-22T20:11:59.934Z,6.30
2023-01-22T20:15:19.675Z,6.50
2023-01-22T20:18:28.242Z,5.67
2023-01-22T20:21:43.127Z,5.43
2023-01-22T20:24:50.268Z,5.47
2023-01-22T20:27:55.749Z,5.93
2023-01-22T20:31:10.567Z,5.40
2023-01-22T20:34:17.678Z,5.87
2023-01-22T20:37:25.149Z,5.00
2023-01-22T20:40:32.255Z,5.03
2023-01-22T20:43:39.843Z,4.20
2023-01-22T20:46:45.773Z,4.77
2023-01-22T20:49:52.833Z,3.80
2023-01-22T20:52:58.266Z,3.87
2023-01-22T20:56:05.545Z,4.27
2023-01-22T20:59:13.816Z,3.87
2023-01-22T21:02:19.829Z,4.03
2023-01-22T21:05:27.355Z,4.13
2023-01-22T21:08:33.305Z,3.53
2023-01-22T21:11:40.171Z,3.53
2023-01-22T21:14:45.682Z,4.00
2023-01-22T21:17:51.098Z,3.93
2023-01-22T21:20:58.102Z,3.63
2023-01-22T21:24:04.001Z,4.00
2023-01-22T21:27:09.496Z,3.83
2023-01-22T21:30:15.328Z,3.67
2023-01-22T21:33:21.261Z,3.60
2023-01-22T21:36:28.002Z,3.47
2023-01-22T21:39:33.382Z,3.40
2023-01-22T21:42:55.876Z,3.70
2023-01-22T21:46:19.152Z,4.00
2023-01-22T21:49:24.746Z,3.87
2023-01-22T21:52:31.995Z,3.80
2023-01-22T21:55:39.653Z,3.90
2023-01-22T21:58:45.571Z,3.90
2023-01-22T22:01:53.796Z,3.87
2023-01-22T22:05:00.222Z,3.77
2023-01-22T22:08:07.300Z,4.03
2023-01-22T22:11:15.974Z,4.17
2023-01-22T22:14:21.640Z,4.60
2023-01-22T22:17:26.759Z,3.70
2023-01-22T22:20:33.799Z,3.67
2023-01-22T22:23:40.713Z,4.17
2023-01-22T22:26:46.099Z,3.87
2023-01-22T22:29:54.231Z,4.43
2023-01-22T22:32:59.889Z,4.03
2023-01-22T22:36:05.869Z,4.37
2023-01-22T22:39:12.959Z,3.80
2023-01-22T22:42:18.713Z,3.97
2023-01-22T22:45:26.375Z,3.90
2023-01-22T22:48:32.330Z,4.50
2023-01-22T22:51:41.151Z,4.33
2023-01-22T22:54:48.692Z,4.23
2023-01-22T22:57:54.283Z,3.90
2023-01-22T23:00:59.745Z,4.00
2023-01-22T23:04:05.283Z,4.37
2023-01-22T23:07:13.243Z,4.17
2023-01-22T23:10:29.915Z,3.80
2023-01-22T23:13:35.960Z,4.00
2023-01-22T23:16:43.057Z,4.10
2023-01-22T23:19:48.517Z,4.00
2023-01-22T23:22:56.823Z,3.50
2023-01-22T23:26:06.578Z,3.40
2023-01-22T23:29:16.072Z,4.40
2023-01-22T23:32:26.548Z,3.47
2023-01-22T23:35:35.203Z,3.60
2023-01-22T23:38:41.029Z,3.60
2023-01-22T23:41:48.420Z,3.70
2023-01-22T23:44:53.876Z,3.53
2023-01-22T23:48:01.439Z,3.60
2023-01-22T23:51:09.146Z,4.13
2023-01-22T23:54:14.858Z,3.57
2023-01-22T23:57:21.868Z,3.20
